Time;durP1;ratioP1;P1;durP2;ratioP2;P2;SDS_P1;SDS_P2;PMS_P1;PMS_P2;Temp;Humidity;BMP_temperature;BMP_pressure;BME280_temperature;BME280_humidity;BME280_pressure;Samples;Min_cycle;Max_cycle;Signal;HPM_P1;HPM_P2
2022/07/15 00:03:49;;;;;;;0.20;0.00;;;26.40;99.90;;;;;;25673276;23;20317;-70
2022/07/15 00:13:53;;;;;;;0.20;0.00;;;26.40;99.90;;;;;;25672850;23;20189;-70
2022/07/15 00:24:06;;;;;;;0.20;0.00;;;26.00;99.90;;;;;;25672502;23;20189;-69
2022/07/15 00:34:10;;;;;;;0.20;0.00;;;25.90;99.90;;;;;;25698136;23;20201;-69
2022/07/15 00:44:15;;;;;;;0.20;0.00;;;25.80;99.90;;;;;;25696559;23;20259;-70
2022/07/15 00:54:24;;;;;;;0.20;0.10;;;25.80;99.90;;;;;;25697679;23;20189;-70
2022/07/15 01:04:31;;;;;;;0.20;0.10;;;25.80;99.90;;;;;;25696604;23;20208;-70
2022/07/15 01:14:36;;;;;;;0.20;0.00;;;25.50;99.90;;;;;;25671206;23;20186;-70
2022/07/15 01:24:41;;;;;;;0.20;0.10;;;25.50;99.90;;;;;;25696589;23;20173;-70
2022/07/15 01:34:48;;;;;;;0.20;0.03;;;25.40;99.90;;;;;;25695819;23;20213;-69
2022/07/15 01:44:53;;;;;;;0.20;0.00;;;25.30;99.90;;;;;;25669800;23;20170;-70
2022/07/15 01:54:57;;;;;;;0.20;0.00;;;25.40;99.90;;;;;;25696089;23;20190;-69
2022/07/15 02:05:03;;;;;;;0.20;0.00;;;26.00;99.90;;;;;;25696227;23;20204;-69
2022/07/15 02:15:07;;;;;;;0.20;0.00;;;27.10;99.90;;;;;;25701801;23;20224;-70
2022/07/15 02:25:12;;;;;;;0.20;0.00;;;26.90;99.90;;;;;;25678612;23;20170;-69
2022/07/15 02:35:16;;;;;;;0.20;0.00;;;26.80;99.90;;;;;;25704124;23;20197;-70
2022/07/15 02:45:23;;;;;;;0.20;0.00;;;26.80;99.90;;;;;;25677374;23;20686;-70
2022/07/15 02:55:27;;;;;;;0.20;0.00;;;27.30;99.90;;;;;;25702982;23;20194;-70
2022/07/15 03:05:32;;;;;;;0.20;0.00;;;27.40;99.90;;;;;;25702091;23;20229;-69
2022/07/15 03:15:36;;;;;;;0.20;0.00;;;27.30;99.90;;;;;;25701947;23;20217;-70
2022/07/15 03:25:41;;;;;;;0.20;0.00;;;27.30;99.90;;;;;;25675039;23;20175;-69
2022/07/15 03:35:46;;;;;;;0.20;0.00;;;27.40;99.90;;;;;;25701364;23;20182;-69
2022/07/15 03:45:51;;;;;;;0.20;0.00;;;27.30;99.90;;;;;;25674191;23;20173;-69
2022/07/15 03:55:55;;;;;;;0.20;0.10;;;27.40;99.90;;;;;;25700201;23;20186;-67
2022/07/15 04:06:00;;;;;;;0.20;0.10;;;27.20;99.90;;;;;;25673112;23;20198;-68
2022/07/15 04:16:05;;;;;;;0.20;0.10;;;27.20;99.90;;;;;;25673006;23;20213;-68
2022/07/15 04:26:10;;;;;;;0.20;0.10;;;27.40;99.90;;;;;;25698405;23;20213;-70
2022/07/15 04:36:14;;;;;;;0.20;0.10;;;27.30;99.90;;;;;;25697316;23;20190;-69
2022/07/15 04:46:19;;;;;;;0.20;0.00;;;27.60;99.90;;;;;;25696282;23;20186;-69
2022/07/15 04:56:23;;;;;;;0.20;0.00;;;27.20;99.90;;;;;;25694688;23;20186;-70
2022/07/15 05:06:28;;;;;;;0.20;0.00;;;26.60;99.90;;;;;;25668244;23;20198;-70
2022/07/15 05:16:32;;;;;;;0.20;0.00;;;26.60;99.90;;;;;;25668738;23;20202;-75
2022/07/15 05:26:37;;;;;;;0.20;0.00;;;26.30;99.90;;;;;;25693883;23;20181;-71
2022/07/15 05:36:47;;;;;;;0.20;0.00;;;26.60;99.90;;;;;;25693367;23;20185;-70
2022/07/15 05:46:53;;;;;;;0.20;0.00;;;26.60;99.90;;;;;;25669810;23;20170;-70
2022/07/15 05:56:58;;;;;;;0.20;0.00;;;26.80;99.90;;;;;;25700506;23;20293;-70
2022/07/15 06:07:03;;;;;;;0.20;0.00;;;27.00;99.90;;;;;;25699477;23;20200;-66
2022/07/15 06:17:07;;;;;;;0.20;0.00;;;27.40;99.90;;;;;;25674524;23;20206;-70
2022/07/15 06:27:12;;;;;;;0.20;0.00;;;27.60;99.90;;;;;;25700728;23;20724;-71
2022/07/15 06:37:17;;;;;;;0.20;0.00;;;27.90;99.90;;;;;;25699342;23;20198;-69
2022/07/15 06:47:22;;;;;;;0.20;0.10;;;28.30;99.90;;;;;;25671739;23;20162;-70
2022/07/15 06:57:27;;;;;;;0.20;0.00;;;28.60;99.90;;;;;;25694148;23;20190;-70
2022/07/15 07:07:33;;;;;;;0.20;0.10;;;28.80;99.90;;;;;;25669928;23;20209;-68
2022/07/15 07:17:36;;;;;;;0.20;0.00;;;28.80;99.90;;;;;;25697824;23;20193;-69
2022/07/15 07:27:42;;;;;;;0.20;0.10;;;29.10;99.90;;;;;;25671630;23;20189;-70
2022/07/15 07:37:46;;;;;;;0.20;0.10;;;29.10;99.90;;;;;;25696813;23;20194;-67
2022/07/15 07:47:52;;;;;;;0.20;0.00;;;29.10;99.90;;;;;;25698182;23;20166;-70
2022/07/15 07:57:57;;;;;;;0.20;0.00;;;29.30;99.90;;;;;;25696836;23;20190;-70
2022/07/15 08:08:13;;;;;;;0.20;0.00;;;29.50;99.90;;;;;;25668119;23;20201;-70
2022/07/15 08:18:17;;;;;;;0.20;0.00;;;29.40;99.90;;;;;;25695352;23;20206;-69
2022/07/15 08:28:23;;;;;;;0.20;0.00;;;29.50;99.90;;;;;;25695139;23;20165;-70
2022/07/15 08:38:48;;;;;;;0.20;0.00;;;29.80;99.90;;;;;;25692031;23;20194;-70
2022/07/15 08:48:58;;;;;;;0.20;0.00;;;30.30;99.90;;;;;;25693122;23;20181;-70
2022/07/15 08:59:03;;;;;;;0.20;0.00;;;29.70;99.90;;;;;;25666380;23;20213;-68
2022/07/15 09:09:28;;;;;;;0.20;0.10;;;29.10;99.90;;;;;;25693330;23;20162;-69
2022/07/15 09:19:59;;;;;;;0.20;0.10;;;29.10;99.90;;;;;;25665755;23;20276;-69
2022/07/15 09:40:48;;;;;;;0.20;0.00;;;29.60;99.90;;;;;;25679611;23;20368;-69
2022/07/15 09:51:00;;;;;;;0.20;0.00;;;30.00;99.90;;;;;;25685725;23;20189;-68
2022/07/15 10:01:04;;;;;;;0.20;0.00;;;30.10;99.90;;;;;;25679910;23;20338;-68
2022/07/15 10:11:11;;;;;;;0.20;0.00;;;29.70;99.90;;;;;;25679242;23;20201;-70
2022/07/15 10:21:26;;;;;;;0.20;0.00;;;29.60;99.90;;;;;;25679286;23;20182;-69
2022/07/15 10:31:33;;;;;;;0.20;0.00;;;30.20;99.90;;;;;;25653759;23;20192;-69
2022/07/15 10:41:52;;;;;;;0.20;0.00;;;30.50;99.90;;;;;;25686323;23;20186;-69
2022/07/15 10:52:11;;;;;;;0.20;0.10;;;30.40;99.90;;;;;;25685612;23;20170;-69
2022/07/15 11:02:18;;;;;;;0.20;0.00;;;31.20;99.90;;;;;;25684510;23;20207;-70
2022/07/15 11:12:25;;;;;;;0.20;0.00;;;30.90;99.90;;;;;;25683362;23;20170;-68
2022/07/15 11:22:29;;;;;;;0.20;0.00;;;31.40;99.90;;;;;;25683770;23;20270;-69
2022/07/15 11:32:35;;;;;;;0.20;0.00;;;31.90;99.90;;;;;;25658387;23;20216;-67
2022/07/15 11:53:11;;;;;;;0.20;0.00;;;33.00;99.90;;;;;;25678135;23;20174;-69
2022/07/15 12:03:15;;;;;;;0.20;0.00;;;32.90;99.90;;;;;;25679612;23;20350;-69
2022/07/15 12:13:20;;;;;;;0.20;0.00;;;32.50;99.90;;;;;;25676780;23;20230;-70
2022/07/15 12:23:26;;;;;;;0.20;0.10;;;33.50;99.90;;;;;;25681998;23;20242;-70
2022/07/15 12:33:35;;;;;;;0.20;0.00;;;33.10;99.90;;;;;;25684493;23;20235;-70
2022/07/15 12:43:49;;;;;;;0.20;0.00;;;34.40;99.90;;;;;;25684085;23;20204;-69
2022/07/15 12:54:05;;;;;;;0.20;0.00;;;33.50;99.90;;;;;;25683180;23;20197;-69
2022/07/15 13:04:09;;;;;;;0.20;0.00;;;33.70;99.90;;;;;;25681836;23;20226;-70
2022/07/15 13:14:14;;;;;;;1.92;1.85;;;34.60;99.90;;;;;;25682667;23;20189;-68
2022/07/15 13:24:18;;;;;;;0.20;0.00;;;34.90;99.90;;;;;;25683157;23;20201;-69
2022/07/15 13:34:23;;;;;;;0.20;0.00;;;35.00;99.90;;;;;;25683556;23;20189;-71
2022/07/15 13:44:27;;;;;;;0.20;0.00;;;35.40;99.90;;;;;;25682195;23;20207;-69
2022/07/15 13:54:32;;;;;;;0.20;0.00;;;35.70;99.90;;;;;;25652365;23;20214;-70
2022/07/15 14:04:36;;;;;;;0.20;0.00;;;35.80;99.90;;;;;;25677785;23;20313;-70
2022/07/15 14:14:41;;;;;;;0.20;0.00;;;35.80;99.90;;;;;;25658215;23;20247;-69
2022/07/15 14:24:46;;;;;;;0.20;0.00;;;35.00;99.90;;;;;;25659346;23;20194;-70
2022/07/15 14:34:51;;;;;;;0.20;0.00;;;34.70;99.90;;;;;;25658173;23;20189;-71
2022/07/15 14:44:55;;;;;;;0.20;0.00;;;36.00;99.90;;;;;;25656684;23;20205;-70
2022/07/15 14:55:00;;;;;;;0.20;0.00;;;35.70;99.90;;;;;;25682623;23;20178;-69
2022/07/15 15:05:05;;;;;;;0.20;0.00;;;36.40;99.90;;;;;;25680931;23;20217;-68
2022/07/15 15:15:11;;;;;;;0.20;0.00;;;35.40;99.90;;;;;;25680625;23;20165;-68
2022/07/15 15:26:20;;;;;;;0.20;0.00;;;36.00;99.90;;;;;;25652033;23;21148;-69
2022/07/15 15:35:40;;;;;;;0.20;0.00;;;36.50;99.90;;;;;;25654508;23;20193;-69
2022/07/15 15:45:44;;;;;;;0.20;0.00;;;36.30;99.90;;;;;;25655237;23;20186;-70
2022/07/15 15:55:49;;;;;;;0.20;0.00;;;36.10;99.90;;;;;;25680952;23;20240;-71
2022/07/15 16:05:53;;;;;;;0.20;0.00;;;35.80;99.90;;;;;;25680549;23;20241;-69
2022/07/15 16:15:58;;;;;;;0.20;0.00;;;35.50;99.90;;;;;;25679761;23;20171;-70
2022/07/15 16:26:02;;;;;;;0.20;0.00;;;33.90;99.90;;;;;;25689610;23;20182;-69
2022/07/15 16:36:08;;;;;;;0.20;0.00;;;32.80;99.90;;;;;;25689908;23;20170;-68
2022/07/15 16:46:12;;;;;;;0.20;0.00;;;32.70;99.90;;;;;;25664005;23;20194;-69
2022/07/15 16:56:17;;;;;;;0.20;0.00;;;32.30;99.90;;;;;;25689611;23;20170;-68
2022/07/15 17:06:21;;;;;;;0.20;0.00;;;32.30;99.90;;;;;;25689478;23;20194;-68
2022/07/15 17:16:27;;;;;;;0.20;0.00;;;33.50;99.90;;;;;;25661697;23;20158;-69
2022/07/15 17:26:31;;;;;;;0.20;0.00;;;34.60;99.90;;;;;;25688687;23;20270;-68
2022/07/15 17:36:36;;;;;;;0.20;0.00;;;35.00;99.90;;;;;;25692312;23;20208;-69
2022/07/15 17:46:40;;;;;;;0.20;0.00;;;35.00;99.90;;;;;;25642229;23;20189;-70
2022/07/15 17:56:45;;;;;;;0.20;0.00;;;34.20;99.90;;;;;;25691372;23;20170;-70
2022/07/15 18:06:49;;;;;;;0.20;0.00;;;34.50;99.90;;;;;;25690438;23;20221;-69
2022/07/15 18:16:55;;;;;;;0.20;0.00;;;34.70;99.90;;;;;;25689573;23;20174;-70
2022/07/15 18:26:59;;;;;;;0.20;0.00;;;35.00;99.90;;;;;;25688847;23;20630;-69
2022/07/15 18:37:04;;;;;;;0.20;0.00;;;34.50;99.90;;;;;;25690984;23;20263;-70
2022/07/15 18:47:08;;;;;;;0.20;0.00;;;34.10;99.90;;;;;;25689441;23;20185;-70
2022/07/15 18:57:13;;;;;;;0.20;0.00;;;32.90;99.90;;;;;;25670014;23;20181;-69
2022/07/15 19:07:17;;;;;;;0.20;0.10;;;31.60;99.90;;;;;;25697044;23;20201;-70
2022/07/15 19:17:23;;;;;;;0.20;0.00;;;30.80;99.90;;;;;;25698223;23;20178;-68
2022/07/15 19:27:27;;;;;;;0.20;0.00;;;30.40;99.90;;;;;;25665737;23;20187;-67
2022/07/15 19:37:32;;;;;;;0.20;0.00;;;30.20;99.90;;;;;;25692311;23;20174;-70
2022/07/15 19:47:37;;;;;;;0.20;0.00;;;30.20;99.90;;;;;;25666313;23;20205;-68
2022/07/15 19:57:42;;;;;;;0.20;0.00;;;29.60;99.90;;;;;;25691406;23;20185;-70
2022/07/15 20:07:46;;;;;;;0.20;0.10;;;29.50;99.90;;;;;;25692122;23;20202;-68
2022/07/15 20:17:53;;;;;;;0.20;0.00;;;29.50;99.90;;;;;;25670385;23;20510;-72
2022/07/15 20:27:58;;;;;;;0.20;0.00;;;29.30;99.90;;;;;;25695189;23;20178;-71
2022/07/15 20:38:04;;;;;;;0.20;0.00;;;29.00;99.90;;;;;;25696233;23;20170;-71
2022/07/15 20:48:11;;;;;;;0.20;0.10;;;29.00;99.90;;;;;;25696378;23;20201;-70
2022/07/15 20:58:17;;;;;;;0.20;0.00;;;28.70;99.90;;;;;;25659347;23;20217;-70
2022/07/15 21:08:20;;;;;;;0.20;0.10;;;28.70;99.90;;;;;;25679490;23;20302;-73
2022/07/15 21:18:27;;;;;;;0.20;0.10;;;28.60;99.90;;;;;;25682853;23;20194;-74
2022/07/15 21:28:31;;;;;;;0.20;0.00;;;28.50;99.90;;;;;;25656452;23;20174;-73
2022/07/15 21:38:36;;;;;;;0.20;0.00;;;28.60;99.90;;;;;;25679829;23;20189;-70
2022/07/15 21:48:40;;;;;;;0.20;0.00;;;28.40;99.90;;;;;;25654767;23;20186;-71
2022/07/15 21:58:46;;;;;;;0.20;0.00;;;28.60;99.90;;;;;;25684209;23;20249;-70
2022/07/15 22:08:50;;;;;;;0.20;0.00;;;28.50;99.90;;;;;;25656083;23;20229;-71
2022/07/15 22:18:55;;;;;;;0.20;0.00;;;28.70;99.90;;;;;;25681529;23;20257;-70
2022/07/15 22:28:58;;;;;;;0.20;0.00;;;28.70;99.90;;;;;;25656905;23;20170;-71
2022/07/15 22:39:04;;;;;;;0.20;0.00;;;28.60;99.90;;;;;;25689438;23;20194;-70
2022/07/15 22:49:07;;;;;;;0.20;0.10;;;28.60;99.90;;;;;;25688668;23;20288;-71
2022/07/15 22:59:13;;;;;;;0.20;0.00;;;29.00;99.90;;;;;;25686566;23;20217;-70
2022/07/15 23:09:16;;;;;;;0.20;0.00;;;29.20;99.90;;;;;;25688377;23;20229;-70
2022/07/15 23:19:22;;;;;;;0.20;0.00;;;29.30;99.90;;;;;;25661544;23;20214;-69
2022/07/15 23:29:28;;;;;;;0.20;0.00;;;29.30;99.90;;;;;;25664197;23;20189;-69
2022/07/15 23:39:33;;;;;;;0.20;0.00;;;29.20;99.90;;;;;;25699214;23;20205;-69
2022/07/15 23:49:37;;;;;;;0.20;0.10;;;29.20;99.90;;;;;;25674722;23;20232;-70
